sensor_id;sensor_type;location;lat;lon;timestamp;pressure;altitude;pressure_sealevel;temperature;humidity
13661;BME280;6903;49.480;11.102;2023-02-12T00:01:12;99806.03;;;5.35;100.00
13661;BME280;6903;49.480;11.102;2023-02-12T00:03:38;99804.22;;;5.37;100.00
13661;BME280;6903;49.480;11.102;2023-02-12T00:06:04;99802.28;;;5.43;100.00
13661;BME280;6903;49.480;11.102;2023-02-12T00:08:29;99796.97;;;5.46;100.00
13661;BME280;6903;49.480;11.102;2023-02-12T00:10:55;99800.44;;;5.47;100.00
13661;BME280;6903;49.480;11.102;2023-02-12T00:13:20;99802.06;;;5.51;100.00
13661;BME280;6903;49.480;11.102;2023-02-12T00:15:45;99809.03;;;5.52;100.00
13661;BME280;6903;49.480;11.102;2023-02-12T00:18:11;99799.44;;;5.52;100.00
13661;BME280;6903;49.480;11.102;2023-02-12T00:20:37;99799.38;;;5.54;100.00
13661;BME280;6903;49.480;11.102;2023-02-12T00:23:03;99794.16;;;5.54;100.00
13661;BME280;6903;49.480;11.102;2023-02-12T00:25:29;99794.06;;;5.57;100.00
13661;BME280;6903;49.480;11.102;2023-02-12T00:27:54;99800.06;;;5.59;100.00
13661;BME280;6903;49.480;11.102;2023-02-12T00:30:20;99803.59;;;5.58;100.00
13661;BME280;6903;49.480;11.102;2023-02-12T00:32:45;99801.84;;;5.58;100.00
13661;BME280;6903;49.480;11.102;2023-02-12T00:35:11;99803.56;;;5.59;100.00
13661;BME280;6903;49.480;11.102;2023-02-12T00:37:36;99811.41;;;5.59;100.00
13661;BME280;6903;49.480;11.102;2023-02-12T00:40:02;99802.63;;;5.62;100.00
13661;BME280;6903;49.480;11.102;2023-02-12T00:42:27;99804.22;;;5.66;100.00
13661;BME280;6903;49.480;11.102;2023-02-12T00:44:52;99806.78;;;5.67;100.00
13661;BME280;6903;49.480;11.102;2023-02-12T00:47:18;99808.53;;;5.68;100.00
13661;BME280;6903;49.480;11.102;2023-02-12T00:49:43;99807.56;;;5.71;100.00
13661;BME280;6903;49.480;11.102;2023-02-12T00:52:08;99807.41;;;5.75;100.00
13661;BME280;6903;49.480;11.102;2023-02-12T00:54:34;99811.78;;;5.75;100.00
13661;BME280;6903;49.480;11.102;2023-02-12T00:56:59;99809.97;;;5.77;100.00
13661;BME280;6903;49.480;11.102;2023-02-12T00:59:25;99808.28;;;5.76;100.00
13661;BME280;6903;49.480;11.102;2023-02-12T01:01:53;99809.94;;;5.78;100.00
13661;BME280;6903;49.480;11.102;2023-02-12T01:04:18;99813.41;;;5.79;100.00
13661;BME280;6903;49.480;11.102;2023-02-12T01:06:44;99816.03;;;5.79;100.00
13661;BME280;6903;49.480;11.102;2023-02-12T01:09:10;99818.59;;;5.80;100.00
13661;BME280;6903;49.480;11.102;2023-02-12T01:11:36;99811.59;;;5.83;100.00
13661;BME280;6903;49.480;11.102;2023-02-12T01:14:02;99812.47;;;5.83;100.00
13661;BME280;6903;49.480;11.102;2023-02-12T01:16:28;99808.03;;;5.85;100.00
13661;BME280;6903;49.480;11.102;2023-02-12T01:18:55;99809.81;;;5.85;100.00
13661;BME280;6903;49.480;11.102;2023-02-12T01:21:24;99792.31;;;5.85;100.00
13661;BME280;6903;49.480;11.102;2023-02-12T01:23:50;99800.16;;;5.85;100.00
13661;BME280;6903;49.480;11.102;2023-02-12T01:26:17;99803.66;;;5.86;100.00
13661;BME280;6903;49.480;11.102;2023-02-12T01:28:47;99804.63;;;5.83;100.00
13661;BME280;6903;49.480;11.102;2023-02-12T01:31:18;99809.00;;;5.81;100.00
13661;BME280;6903;49.480;11.102;2023-02-12T01:33:47;99809.00;;;5.83;100.00
13661;BME280;6903;49.480;11.102;2023-02-12T01:36:12;99815.00;;;5.86;100.00
13661;BME280;6903;49.480;11.102;2023-02-12T01:38:37;99808.78;;;5.89;100.00
13661;BME280;6903;49.480;11.102;2023-02-12T01:41:08;99808.63;;;5.93;100.00
13661;BME280;6903;49.480;11.102;2023-02-12T01:43:35;99798.16;;;5.93;100.00
13661;BME280;6903;49.480;11.102;2023-02-12T01:46:01;99798.25;;;5.90;100.00
13661;BME280;6903;49.480;11.102;2023-02-12T01:48:31;99799.22;;;5.88;100.00
13661;BME280;6903;49.480;11.102;2023-02-12T01:50:58;99793.06;;;5.89;100.00
13661;BME280;6903;49.480;11.102;2023-02-12T01:53:29;99789.69;;;5.85;100.00
13661;BME280;6903;49.480;11.102;2023-02-12T01:55:58;99793.03;;;5.90;100.00
13661;BME280;6903;49.480;11.102;2023-02-12T01:58:25;99796.50;;;5.91;100.00
13661;BME280;6903;49.480;11.102;2023-02-12T02:00:54;99798.16;;;5.93;100.00
13661;BME280;6903;49.480;11.102;2023-02-12T02:03:19;99794.66;;;5.94;100.00
13661;BME280;6903;49.480;11.102;2023-02-12T02:05:50;99804.25;;;5.94;100.00
13661;BME280;6903;49.480;11.102;2023-02-12T02:08:18;99804.25;;;5.94;100.00
13661;BME280;6903;49.480;11.102;2023-02-12T02:10:43;99796.47;;;5.92;100.00
13661;BME280;6903;49.480;11.102;2023-02-12T02:13:09;99794.59;;;5.96;100.00
13661;BME280;6903;49.480;11.102;2023-02-12T02:15:56;99793.69;;;5.97;100.00
13661;BME280;6903;49.480;11.102;2023-02-12T02:26:32;99798.00;;;5.99;100.00
13661;BME280;6903;49.480;11.102;2023-02-12T02:29:33;99805.84;;;5.99;100.00
13661;BME280;6903;49.480;11.102;2023-02-12T02:34:52;99796.06;;;6.04;100.00
13661;BME280;6903;49.480;11.102;2023-02-12T02:37:48;99792.66;;;6.02;100.00
13661;BME280;6903;49.480;11.102;2023-02-12T02:40:26;99801.41;;;6.01;100.00
13661;BME280;6903;49.480;11.102;2023-02-12T02:43:15;99793.59;;;6.00;100.00
13661;BME280;6903;49.480;11.102;2023-02-12T02:45:46;99800.63;;;5.99;100.00
13661;BME280;6903;49.480;11.102;2023-02-12T02:48:14;99804.94;;;6.00;100.00
13661;BME280;6903;49.480;11.102;2023-02-12T02:50:45;99813.59;;;6.02;100.00
13661;BME280;6903;49.480;11.102;2023-02-12T02:53:17;99812.75;;;6.02;100.00
13661;BME280;6903;49.480;11.102;2023-02-12T02:55:53;99809.31;;;6.00;100.00
13661;BME280;6903;49.480;11.102;2023-02-12T02:58:28;99806.72;;;5.98;100.00
13661;BME280;6903;49.480;11.102;2023-02-12T03:01:06;99810.31;;;5.96;100.00
13661;BME280;6903;49.480;11.102;2023-02-12T03:06:24;99811.16;;;5.96;100.00
13661;BME280;6903;49.480;11.102;2023-02-12T03:08:55;99809.41;;;5.97;100.00
13661;BME280;6903;49.480;11.102;2023-02-12T03:11:24;99819.81;;;5.98;100.00
13661;BME280;6903;49.480;11.102;2023-02-12T03:13:58;99822.41;;;6.00;100.00
13661;BME280;6903;49.480;11.102;2023-02-12T03:16:33;99819.88;;;5.97;100.00
13661;BME280;6903;49.480;11.102;2023-02-12T03:19:06;99819.00;;;5.96;100.00
13661;BME280;6903;49.480;11.102;2023-02-12T03:21:39;99822.59;;;5.94;100.00
13661;BME280;6903;49.480;11.102;2023-02-12T03:24:36;99826.09;;;5.94;100.00
13661;BME280;6903;49.480;11.102;2023-02-12T03:27:26;99823.41;;;5.96;100.00
13661;BME280;6903;49.480;11.102;2023-02-12T03:29:53;99817.31;;;5.95;100.00
13661;BME280;6903;49.480;11.102;2023-02-12T03:32:41;99823.38;;;5.97;100.00
13661;BME280;6903;49.480;11.102;2023-02-12T03:35:33;99832.97;;;5.97;100.00
13661;BME280;6903;49.480;11.102;2023-02-12T03:38:20;99834.66;;;5.99;100.00
13661;BME280;6903;49.480;11.102;2023-02-12T03:40:59;99833.78;;;5.99;100.00
13661;BME280;6903;49.480;11.102;2023-02-12T03:43:42;99827.69;;;5.98;100.00
13661;BME280;6903;49.480;11.102;2023-02-12T03:46:36;99828.59;;;5.97;100.00
13661;BME280;6903;49.480;11.102;2023-02-12T03:51:46;99839.03;;;5.99;100.00
13661;BME280;6903;49.480;11.102;2023-02-12T03:54:13;99841.59;;;6.00;100.00
13661;BME280;6903;49.480;11.102;2023-02-12T03:56:45;99845.16;;;5.98;100.00
13661;BME280;6903;49.480;11.102;2023-02-12T03:59:17;99841.69;;;5.97;100.00
13661;BME280;6903;49.480;11.102;2023-02-12T04:01:43;99846.16;;;5.94;100.00
13661;BME280;6903;49.480;11.102;2023-02-12T04:04:08;99840.06;;;5.93;100.00
13661;BME280;6903;49.480;11.102;2023-02-12T04:06:34;99841.88;;;5.91;100.00
13661;BME280;6903;49.480;11.102;2023-02-12T04:09:05;99839.28;;;5.91;100.00
13661;BME280;6903;49.480;11.102;2023-02-12T04:11:44;99847.13;;;5.91;100.00
13661;BME280;6903;49.480;11.102;2023-02-12T04:17:17;99849.03;;;5.86;100.00
13661;BME280;6903;49.480;11.102;2023-02-12T04:24:59;99848.88;;;5.91;100.00
13661;BME280;6903;49.480;11.102;2023-02-12T04:27:39;99843.59;;;5.92;100.00
13661;BME280;6903;49.480;11.102;2023-02-12T04:30:31;99848.06;;;5.89;100.00
13661;BME280;6903;49.480;11.102;2023-02-12T04:33:01;99852.44;;;5.88;100.00
13661;BME280;6903;49.480;11.102;2023-02-12T04:35:44;99857.75;;;5.85;100.00
13661;BME280;6903;49.480;11.102;2023-02-12T04:38:22;99858.72;;;5.83;100.00
13661;BME280;6903;49.480;11.102;2023-02-12T04:40:50;99859.59;;;5.83;100.00
13661;BME280;6903;49.480;11.102;2023-02-12T04:43:30;99863.91;;;5.84;100.00
13661;BME280;6903;49.480;11.102;2023-02-12T04:45:56;99864.72;;;5.86;100.00
13661;BME280;6903;49.480;11.102;2023-02-12T04:48:21;99867.34;;;5.86;100.00
13661;BME280;6903;49.480;11.102;2023-02-12T04:50:47;99867.41;;;5.85;100.00
13661;BME280;6903;49.480;11.102;2023-02-12T04:53:12;99864.81;;;5.83;100.00
13661;BME280;6903;49.480;11.102;2023-02-12T04:55:38;99865.66;;;5.84;100.00
13661;BME280;6903;49.480;11.102;2023-02-12T04:58:04;99872.66;;;5.81;100.00
13661;BME280;6903;49.480;11.102;2023-02-12T05:00:29;99870.09;;;5.80;100.00
13661;BME280;6903;49.480;11.102;2023-02-12T05:02:55;99867.47;;;5.80;100.00
13661;BME280;6903;49.480;11.102;2023-02-12T05:05:20;99866.69;;;5.78;100.00
13661;BME280;6903;49.480;11.102;2023-02-12T05:07:46;99875.41;;;5.77;100.00
13661;BME280;6903;49.480;11.102;2023-02-12T05:10:12;99865.91;;;5.74;100.00
13661;BME280;6903;49.480;11.102;2023-02-12T05:12:37;99872.13;;;5.70;100.00
13661;BME280;6903;49.480;11.102;2023-02-12T05:15:03;99870.53;;;5.66;100.00
13661;BME280;6903;49.480;11.102;2023-02-12T05:17:28;99879.34;;;5.62;100.00
13661;BME280;6903;49.480;11.102;2023-02-12T05:19:54;99870.69;;;5.60;100.00
13661;BME280;6903;49.480;11.102;2023-02-12T05:22:19;99873.34;;;5.59;100.00
13661;BME280;6903;49.480;11.102;2023-02-12T05:24:44;99871.63;;;5.58;100.00
13661;BME280;6903;49.480;11.102;2023-02-12T05:27:10;99870.72;;;5.59;100.00
13661;BME280;6903;49.480;11.102;2023-02-12T05:29:36;99876.78;;;5.61;100.00
13661;BME280;6903;49.480;11.102;2023-02-12T05:32:01;99875.06;;;5.60;100.00
13661;BME280;6903;49.480;11.102;2023-02-12T05:34:26;99870.06;;;5.52;100.00
13661;BME280;6903;49.480;11.102;2023-02-12T05:36:52;99884.16;;;5.47;100.00
13661;BME280;6903;49.480;11.102;2023-02-12T05:39:17;99889.50;;;5.44;100.00
13661;BME280;6903;49.480;11.102;2023-02-12T05:41:42;99886.88;;;5.44;100.00
13661;BME280;6903;49.480;11.102;2023-02-12T05:44:08;99877.25;;;5.44;100.00
13661;BME280;6903;49.480;11.102;2023-02-12T05:46:36;99885.97;;;5.45;100.00
13661;BME280;6903;49.480;11.102;2023-02-12T05:49:02;99888.66;;;5.42;100.00
13661;BME280;6903;49.480;11.102;2023-02-12T05:51:27;99894.91;;;5.36;100.00
13661;BME280;6903;49.480;11.102;2023-02-12T05:53:58;99889.81;;;5.32;100.00
13661;BME280;6903;49.480;11.102;2023-02-12T05:56:32;99893.38;;;5.29;100.00
13661;BME280;6903;49.480;11.102;2023-02-12T05:59:06;99896.84;;;5.31;100.00
13661;BME280;6903;49.480;11.102;2023-02-12T06:01:40;99895.88;;;5.34;100.00
13661;BME280;6903;49.480;11.102;2023-02-12T06:04:09;99898.41;;;5.37;100.00
13661;BME280;6903;49.480;11.102;2023-02-12T06:06:35;99895.78;;;5.37;100.00
13661;BME280;6903;49.480;11.102;2023-02-12T06:09:01;99901.00;;;5.37;100.00
13661;BME280;6903;49.480;11.102;2023-02-12T06:11:26;99898.50;;;5.34;100.00
13661;BME280;6903;49.480;11.102;2023-02-12T06:13:52;99903.94;;;5.26;100.00
13661;BME280;6903;49.480;11.102;2023-02-12T06:16:27;99902.34;;;5.21;100.00
13661;BME280;6903;49.480;11.102;2023-02-12T06:18:53;99903.28;;;5.18;100.00
13661;BME280;6903;49.480;11.102;2023-02-12T06:21:21;99907.88;;;5.10;100.00
13661;BME280;6903;49.480;11.102;2023-02-12T06:23:47;99902.06;;;4.98;100.00
13661;BME280;6903;49.480;11.102;2023-02-12T06:26:13;99908.25;;;4.95;100.00
13661;BME280;6903;49.480;11.102;2023-02-12T06:28:39;99911.00;;;4.91;100.00
13661;BME280;6903;49.480;11.102;2023-02-12T06:31:04;99911.94;;;4.87;100.00
13661;BME280;6903;49.480;11.102;2023-02-12T06:33:30;99912.00;;;4.85;100.00
13661;BME280;6903;49.480;11.102;2023-02-12T06:35:55;99912.91;;;4.84;100.00
13661;BME280;6903;49.480;11.102;2023-02-12T06:38:20;99922.41;;;4.87;100.00
13661;BME280;6903;49.480;11.102;2023-02-12T06:40:46;99924.94;;;4.90;100.00
13661;BME280;6903;49.480;11.102;2023-02-12T06:43:11;99931.78;;;4.95;100.00
13661;BME280;6903;49.480;11.102;2023-02-12T06:45:37;99937.00;;;4.95;100.00
13661;BME280;6903;49.480;11.102;2023-02-12T06:48:02;99940.56;;;4.93;100.00
13661;BME280;6903;49.480;11.102;2023-02-12T06:50:28;99939.72;;;4.92;100.00
13661;BME280;6903;49.480;11.102;2023-02-12T06:52:53;99947.53;;;4.92;100.00
13661;BME280;6903;49.480;11.102;2023-02-12T06:55:19;99948.38;;;4.94;100.00
13661;BME280;6903;49.480;11.102;2023-02-12T06:57:44;99945.59;;;5.00;100.00
13661;BME280;6903;49.480;11.102;2023-02-12T07:00:10;99946.38;;;5.04;100.00
13661;BME280;6903;49.480;11.102;2023-02-12T07:02:35;99953.38;;;5.03;100.00
13661;BME280;6903;49.480;11.102;2023-02-12T07:05:01;99952.41;;;5.06;100.00
13661;BME280;6903;49.480;11.102;2023-02-12T07:07:26;99955.84;;;5.08;100.00
13661;BME280;6903;49.480;11.102;2023-02-12T07:09:51;99962.91;;;5.04;100.00
13661;BME280;6903;49.480;11.102;2023-02-12T07:12:17;99960.28;;;5.04;100.00
13661;BME280;6903;49.480;11.102;2023-02-12T07:14:42;99964.66;;;5.05;100.00
13661;BME280;6903;49.480;11.102;2023-02-12T07:17:07;99965.47;;;5.07;100.00
13661;BME280;6903;49.480;11.102;2023-02-12T07:19:34;99969.72;;;5.11;100.00
13661;BME280;6903;49.480;11.102;2023-02-12T07:22:00;99966.13;;;5.15;100.00
13661;BME280;6903;49.480;11.102;2023-02-12T07:24:25;99971.28;;;5.18;100.00
13661;BME280;6903;49.480;11.102;2023-02-12T07:26:50;99973.81;;;5.21;100.00
13661;BME280;6903;49.480;11.102;2023-02-12T07:29:16;99976.31;;;5.26;100.00
13661;BME280;6903;49.480;11.102;2023-02-12T07:31:41;99972.72;;;5.30;100.00
13661;BME280;6903;49.480;11.102;2023-02-12T07:34:06;99977.03;;;5.31;100.00
13661;BME280;6903;49.480;11.102;2023-02-12T07:36:32;99973.53;;;5.32;100.00
13661;BME280;6903;49.480;11.102;2023-02-12T07:38:58;99973.72;;;5.24;100.00
13661;BME280;6903;49.480;11.102;2023-02-12T07:41:25;99972.88;;;5.24;100.00
13661;BME280;6903;49.480;11.102;2023-02-12T07:44:05;99972.03;;;5.23;100.00
13661;BME280;6903;49.480;11.102;2023-02-12T07:46:34;99972.72;;;5.30;100.00
13661;BME280;6903;49.480;11.102;2023-02-12T07:49:02;99968.16;;;5.36;100.00
13661;BME280;6903;49.480;11.102;2023-02-12T07:51:30;99979.28;;;5.46;100.00
13661;BME280;6903;49.480;11.102;2023-02-12T07:53:57;99981.53;;;5.58;100.00
13661;BME280;6903;49.480;11.102;2023-02-12T07:56:25;99976.03;;;5.67;100.00
13661;BME280;6903;49.480;11.102;2023-02-12T07:58:55;99977.41;;;5.80;100.00
13661;BME280;6903;49.480;11.102;2023-02-12T08:01:26;99982.25;;;5.95;100.00
13661;BME280;6903;49.480;11.102;2023-02-12T08:03:52;99974.69;;;6.15;100.00
13661;BME280;6903;49.480;11.102;2023-02-12T08:06:19;99974.31;;;6.27;100.00
13661;BME280;6903;49.480;11.102;2023-02-12T08:08:45;99986.47;;;6.30;100.00
13661;BME280;6903;49.480;11.102;2023-02-12T08:11:12;99984.59;;;6.33;100.00
13661;BME280;6903;49.480;11.102;2023-02-12T08:13:38;99989.69;;;6.39;100.00
13661;BME280;6903;49.480;11.102;2023-02-12T08:16:06;99993.72;;;6.49;100.00
13661;BME280;6903;49.480;11.102;2023-02-12T08:18:32;99994.59;;;6.50;100.00
13661;BME280;6903;49.480;11.102;2023-02-12T08:21:18;99999.56;;;6.57;100.00
13661;BME280;6903;49.480;11.102;2023-02-12T08:23:44;99996.75;;;6.65;100.00
13661;BME280;6903;49.480;11.102;2023-02-12T08:28:44;99989.91;;;6.87;100.00
13661;BME280;6903;49.480;11.102;2023-02-12T08:31:13;99985.16;;;6.98;100.00
13661;BME280;6903;49.480;11.102;2023-02-12T08:33:39;99985.47;;;7.15;100.00
13661;BME280;6903;49.480;11.102;2023-02-12T08:36:07;99981.56;;;7.27;100.00
13661;BME280;6903;49.480;11.102;2023-02-12T08:38:38;99971.47;;;7.41;100.00
13661;BME280;6903;49.480;11.102;2023-02-12T08:41:06;99978.94;;;7.76;100.00
13661;BME280;6903;49.480;11.102;2023-02-12T08:43:31;99969.00;;;8.08;100.00
13661;BME280;6903;49.480;11.102;2023-02-12T08:46:05;99971.28;;;8.40;100.00
13661;BME280;6903;49.480;11.102;2023-02-12T08:48:31;99957.69;;;8.51;100.00
13661;BME280;6903;49.480;11.102;2023-02-12T08:51:13;99970.13;;;8.69;100.00
13661;BME280;6903;49.480;11.102;2023-02-12T08:53:41;99970.50;;;8.82;100.00
13661;BME280;6903;49.480;11.102;2023-02-12T08:56:08;99977.50;;;9.03;100.00
13661;BME280;6903;49.480;11.102;2023-02-12T08:58:34;99971.56;;;9.19;100.00
13661;BME280;6903;49.480;11.102;2023-02-12T09:01:00;99965.09;;;9.26;100.00
13661;BME280;6903;49.480;11.102;2023-02-12T09:03:26;99963.13;;;9.31;100.00
13661;BME280;6903;49.480;11.102;2023-02-12T09:05:52;99975.56;;;9.28;100.00
13661;BME280;6903;49.480;11.102;2023-02-12T09:08:17;99971.34;;;9.24;100.00
13661;BME280;6903;49.480;11.102;2023-02-12T09:10:43;99969.31;;;9.30;100.00
13661;BME280;6903;49.480;11.102;2023-02-12T09:13:10;99975.25;;;9.35;100.00
13661;BME280;6903;49.480;11.102;2023-02-12T09:15:41;99972.69;;;9.34;100.00
13661;BME280;6903;49.480;11.102;2023-02-12T09:18:06;99974.84;;;9.24;100.00
13661;BME280;6903;49.480;11.102;2023-02-12T09:20:32;99982.63;;;9.27;100.00
13661;BME280;6903;49.480;11.102;2023-02-12T09:22:58;99978.38;;;9.23;100.00
13661;BME280;6903;49.480;11.102;2023-02-12T09:25:24;99982.03;;;8.99;100.00
13661;BME280;6903;49.480;11.102;2023-02-12T09:27:49;99980.66;;;8.91;100.00
13661;BME280;6903;49.480;11.102;2023-02-12T09:30:15;99986.47;;;8.77;100.00
13661;BME280;6903;49.480;11.102;2023-02-12T09:32:40;99981.03;;;8.60;100.00
13661;BME280;6903;49.480;11.102;2023-02-12T09:35:05;99986.78;;;8.70;100.00
13661;BME280;6903;49.480;11.102;2023-02-12T09:37:31;99988.34;;;8.95;100.00
13661;BME280;6903;49.480;11.102;2023-02-12T09:39:57;99990.78;;;9.21;100.00
13661;BME280;6903;49.480;11.102;2023-02-12T09:42:44;99991.00;;;9.37;100.00
13661;BME280;6903;49.480;11.102;2023-02-12T09:45:21;99986.78;;;9.53;100.00
13661;BME280;6903;49.480;11.102;2023-02-12T09:48:06;99983.06;;;9.57;100.00
13661;BME280;6903;49.480;11.102;2023-02-12T09:50:58;99984.41;;;9.47;100.00
13661;BME280;6903;49.480;11.102;2023-02-12T09:53:27;99988.88;;;9.45;100.00
13661;BME280;6903;49.480;11.102;2023-02-12T09:55:53;99990.53;;;9.27;100.00
13661;BME280;6903;49.480;11.102;2023-02-12T09:58:30;99988.91;;;9.23;100.00
13661;BME280;6903;49.480;11.102;2023-02-12T10:00:57;99994.66;;;9.33;100.00
13661;BME280;6903;49.480;11.102;2023-02-12T10:03:30;99998.56;;;9.44;100.00
13661;BME280;6903;49.480;11.102;2023-02-12T10:06:10;99993.34;;;9.43;100.00
13661;BME280;6903;49.480;11.102;2023-02-12T10:22:27;99993.16;;;10.08;100.00
13661;BME280;6903;49.480;11.102;2023-02-12T10:27:54;99989.44;;;9.91;100.00
13661;BME280;6903;49.480;11.102;2023-02-12T10:30:24;99990.31;;;9.92;100.00
13661;BME280;6903;49.480;11.102;2023-02-12T10:33:00;99997.22;;;10.15;100.00
13661;BME280;6903;49.480;11.102;2023-02-12T10:35:27;99985.34;;;10.43;100.00
13661;BME280;6903;49.480;11.102;2023-02-12T10:40:43;99982.69;;;10.43;100.00
13661;BME280;6903;49.480;11.102;2023-02-12T10:43:11;99984.97;;;9.93;100.00
13661;BME280;6903;49.480;11.102;2023-02-12T10:45:38;99982.22;;;9.76;100.00
13661;BME280;6903;49.480;11.102;2023-02-12T10:48:17;99979.69;;;9.93;100.00
13661;BME280;6903;49.480;11.102;2023-02-12T10:51:07;99977.31;;;10.08;100.00
13661;BME280;6903;49.480;11.102;2023-02-12T10:53:38;99979.38;;;10.20;100.00
13661;BME280;6903;49.480;11.102;2023-02-12T10:58:39;99985.28;;;10.06;100.00
13661;BME280;6903;49.480;11.102;2023-02-12T11:01:14;99986.03;;;9.89;100.00
13661;BME280;6903;49.480;11.102;2023-02-12T11:03:40;99980.69;;;9.91;100.00
13661;BME280;6903;49.480;11.102;2023-02-12T11:06:15;99980.03;;;9.86;100.00
13661;BME280;6903;49.480;11.102;2023-02-12T11:08:41;99979.41;;;9.99;100.00
13661;BME280;6903;49.480;11.102;2023-02-12T11:11:20;99981.84;;;10.04;100.00
13661;BME280;6903;49.480;11.102;2023-02-12T11:13:57;99979.84;;;9.90;100.00
13661;BME280;6903;49.480;11.102;2023-02-12T11:16:27;99979.06;;;9.68;100.00
13661;BME280;6903;49.480;11.102;2023-02-12T11:18:58;99976.50;;;9.67;100.00
13661;BME280;6903;49.480;11.102;2023-02-12T11:21:24;99968.88;;;9.61;100.00
13661;BME280;6903;49.480;11.102;2023-02-12T11:23:49;99978.53;;;9.60;100.00
13661;BME280;6903;49.480;11.102;2023-02-12T11:34:06;99976.94;;;9.36;100.00
13661;BME280;6903;49.480;11.102;2023-02-12T11:36:35;99977.97;;;9.12;100.00
13661;BME280;6903;49.480;11.102;2023-02-12T11:39:01;99980.66;;;8.91;100.00
13661;BME280;6903;49.480;11.102;2023-02-12T11:41:33;99980.94;;;8.83;100.00
13661;BME280;6903;49.480;11.102;2023-02-12T11:44:01;99981.44;;;8.93;100.00
13661;BME280;6903;49.480;11.102;2023-02-12T11:46:33;99983.44;;;9.08;100.00
13661;BME280;6903;49.480;11.102;2023-02-12T11:48:59;99971.44;;;9.22;100.00
13661;BME280;6903;49.480;11.102;2023-02-12T11:51:27;99974.41;;;9.55;100.00
13661;BME280;6903;49.480;11.102;2023-02-12T11:53:57;99972.47;;;9.78;100.00
13661;BME280;6903;49.480;11.102;2023-02-12T11:56:23;99972.91;;;9.88;100.00
13661;BME280;6903;49.480;11.102;2023-02-12T11:58:50;99967.34;;;9.94;100.00
13661;BME280;6903;49.480;11.102;2023-02-12T12:01:22;99962.16;;;10.13;100.00
13661;BME280;6903;49.480;11.102;2023-02-12T12:04:02;99970.50;;;10.41;100.00
13661;BME280;6903;49.480;11.102;2023-02-12T12:06:35;99962.50;;;10.61;100.00
13661;BME280;6903;49.480;11.102;2023-02-12T12:09:17;99966.03;;;10.78;100.00
13661;BME280;6903;49.480;11.102;2023-02-12T12:12:16;99965.19;;;10.78;100.00
13661;BME280;6903;49.480;11.102;2023-02-12T12:14:58;99968.19;;;10.70;100.00
13661;BME280;6903;49.480;11.102;2023-02-12T12:17:53;99964.69;;;10.70;100.00
13661;BME280;6903;49.480;11.102;2023-02-12T12:20:49;99962.88;;;10.89;100.00
13661;BME280;6903;49.480;11.102;2023-02-12T12:23:24;99958.94;;;10.97;100.00
13661;BME280;6903;49.480;11.102;2023-02-12T12:25:59;99961.22;;;11.22;100.00
13661;BME280;6903;49.480;11.102;2023-02-12T12:31:08;99957.31;;;11.46;100.00
13661;BME280;6903;49.480;11.102;2023-02-12T12:36:34;99958.41;;;11.59;100.00
13661;BME280;6903;49.480;11.102;2023-02-12T12:39:19;99960.59;;;11.51;100.00
13661;BME280;6903;49.480;11.102;2023-02-12T12:42:18;99961.06;;;11.59;100.00
13661;BME280;6903;49.480;11.102;2023-02-12T12:53:22;99953.03;;;11.61;100.00
13661;BME280;6903;49.480;11.102;2023-02-12T12:56:21;99951.81;;;11.51;100.00
13661;BME280;6903;49.480;11.102;2023-02-12T13:01:39;99955.16;;;11.03;100.00
13661;BME280;6903;49.480;11.102;2023-02-12T13:07:25;99944.66;;;11.18;100.00
13661;BME280;6903;49.480;11.102;2023-02-12T13:13:21;99935.13;;;11.33;100.00
13661;BME280;6903;49.480;11.102;2023-02-12T13:16:08;99935.31;;;11.45;100.00
13661;BME280;6903;49.480;11.102;2023-02-12T13:18:54;99931.06;;;11.43;100.00
13661;BME280;6903;49.480;11.102;2023-02-12T13:24:31;99933.63;;;11.44;100.00
13661;BME280;6903;49.480;11.102;2023-02-12T13:27:04;99931.88;;;11.78;100.00
13661;BME280;6903;49.480;11.102;2023-02-12T13:29:36;99940.13;;;11.89;100.00
13661;BME280;6903;49.480;11.102;2023-02-12T13:32:04;99936.38;;;11.93;100.00
13661;BME280;6903;49.480;11.102;2023-02-12T13:34:33;99937.72;;;11.84;100.00
13661;BME280;6903;49.480;11.102;2023-02-12T13:37:00;99941.81;;;11.90;100.00
13661;BME280;6903;49.480;11.102;2023-02-12T13:39:41;99938.91;;;11.44;100.00
13661;BME280;6903;49.480;11.102;2023-02-12T13:47:33;99945.38;;;11.22;100.00
13661;BME280;6903;49.480;11.102;2023-02-12T13:52:57;99937.28;;;11.59;100.00
13661;BME280;6903;49.480;11.102;2023-02-12T13:55:33;99938.69;;;11.66;100.00
13661;BME280;6903;49.480;11.102;2023-02-12T14:01:02;99943.81;;;12.02;100.00
13661;BME280;6903;49.480;11.102;2023-02-12T14:03:30;99942.22;;;12.15;100.00
13661;BME280;6903;49.480;11.102;2023-02-12T14:06:17;99929.41;;;12.23;100.00
13661;BME280;6903;49.480;11.102;2023-02-12T14:08:50;99938.72;;;12.14;100.00
13661;BME280;6903;49.480;11.102;2023-02-12T14:11:18;99924.72;;;12.12;100.00
13661;BME280;6903;49.480;11.102;2023-02-12T14:13:51;99930.00;;;12.12;100.00
13661;BME280;6903;49.480;11.102;2023-02-12T14:21:59;99930.38;;;11.39;100.00
13661;BME280;6903;49.480;11.102;2023-02-12T14:27:06;99925.06;;;11.57;100.00
13661;BME280;6903;49.480;11.102;2023-02-12T14:29:59;99927.41;;;11.63;100.00
13661;BME280;6903;49.480;11.102;2023-02-12T14:40:46;99909.69;;;11.65;100.00
13661;BME280;6903;49.480;11.102;2023-02-12T14:46:43;99902.13;;;11.57;100.00
13661;BME280;6903;49.480;11.102;2023-02-12T14:51:30;99910.09;;;11.23;100.00
13661;BME280;6903;49.480;11.102;2023-02-12T14:53:58;99909.25;;;11.22;100.00
13661;BME280;6903;49.480;11.102;2023-02-12T14:56:25;99905.91;;;11.19;100.00
13661;BME280;6903;49.480;11.102;2023-02-12T14:58:52;99911.81;;;11.07;100.00
13661;BME280;6903;49.480;11.102;2023-02-12T15:01:29;99901.41;;;11.04;100.00
13661;BME280;6903;49.480;11.102;2023-02-12T15:03:58;99905.91;;;11.02;100.00
13661;BME280;6903;49.480;11.102;2023-02-12T15:06:37;99903.81;;;10.91;100.00
13661;BME280;6903;49.480;11.102;2023-02-12T15:09:11;99897.34;;;10.80;100.00
13661;BME280;6903;49.480;11.102;2023-02-12T15:11:54;99897.66;;;10.74;100.00